Trosky, Minnesota
Current Conditions -  °F | °C
As of 10:34 AM on Saturday 22 Nov 2014 (Local Time) from KPQN Reporting Station
Unknown Precip Unknown Precip  
Wind Chill: 26°   Ceiling: 200
Heat Index: 34°   Visibility: 0mi
Dew Point: 32°   Wind: 9mph
Humidity: 93%   Direction: 200°SSW
Pressure: 29.68"   Gusts: NA
Location:  43.89°N, 96.26°W
Report Text: KPQN 221634Z AUTO 20008KT M1/4SM UP OVC002 01/00 A2968 RMK AO2
Loading
Personal Weather Stations






























Interactive Weather Map New forecast layout! Learn more

10-Day Weather Forecast

Advertisements
Track Severe Weather on mobile